Time;durP1;ratioP1;P1;durP2;ratioP2;P2;SDS_P1;SDS_P2;PMS_P1;PMS_P2;Temp;Humidity;BMP_temperature;BMP_pressure;BME280_temperature;BME280_humidity;BME280_pressure;Samples;Min_cycle;Max_cycle;Signal;HPM_P1;HPM_P2
2022/06/18 00:02:18;;;;;;;2.05;1.00;;;24.30;37.30;;;;;;2339971;54;20984;-72
2022/06/18 00:04:46;;;;;;;1.83;0.90;;;24.30;37.40;;;;;;2270647;55;20952;-72
2022/06/18 00:07:19;;;;;;;2.17;0.77;;;24.20;37.40;;;;;;2353037;54;20988;-72
2022/06/18 00:09:58;;;;;;;2.00;0.88;;;24.20;37.60;;;;;;2273028;55;21055;-73
2022/06/18 00:15:22;;;;;;;2.75;0.90;;;24.10;37.70;;;;;;2290759;55;21240;-74
2022/06/18 00:17:49;;;;;;;1.85;0.70;;;24.00;38.00;;;;;;2272570;55;21000;-74
2022/06/18 00:20:15;;;;;;;3.22;0.95;;;24.00;37.80;;;;;;2525344;54;21027;-73
2022/06/18 00:22:46;;;;;;;2.67;0.82;;;23.90;37.80;;;;;;2290945;55;20952;-72
2022/06/18 00:25:20;;;;;;;2.45;1.20;;;23.90;38.00;;;;;;2525916;54;20933;-74
2022/06/18 00:27:47;;;;;;;2.17;0.80;;;23.80;38.70;;;;;;2294165;55;21431;-71
2022/06/18 00:30:20;;;;;;;2.12;0.90;;;23.80;38.00;;;;;;2290448;55;21607;-72
2022/06/18 00:32:47;;;;;;;2.00;0.85;;;23.70;38.20;;;;;;2290075;55;21423;-72
2022/06/18 00:35:15;;;;;;;1.52;0.75;;;23.70;38.10;;;;;;2293924;55;21460;-72
2022/06/18 00:37:42;;;;;;;2.70;0.90;;;23.60;38.20;;;;;;2525720;54;21020;-73
2022/06/18 00:41:17;;;;;;;1.90;0.88;;;23.50;38.30;;;;;;2289689;55;21504;-71
2022/06/18 00:44:34;;;;;;;1.98;0.90;;;23.50;38.60;;;;;;2291575;55;21948;-71
2022/06/18 00:47:21;;;;;;;1.30;0.70;;;23.40;38.80;;;;;;2289584;55;21041;-71
2022/06/18 00:50:00;;;;;;;1.83;0.73;;;23.40;38.80;;;;;;2290683;55;20928;-72
2022/06/18 00:52:36;;;;;;;1.85;0.90;;;23.30;38.70;;;;;;2290539;55;21020;-71
2022/06/18 00:55:15;;;;;;;3.37;0.80;;;23.30;38.60;;;;;;2290436;55;20928;-74
2022/06/18 00:57:51;;;;;;;2.87;1.23;;;23.20;38.80;;;;;;2290624;55;21000;-72
2022/06/18 01:00:23;;;;;;;2.62;1.10;;;23.10;38.90;;;;;;2343089;53;21407;-70
2022/06/18 01:02:52;;;;;;;;;;;23.10;39.00;;;;;;2294813;55;20976;-71
2022/06/18 01:05:26;;;;;;;2.22;0.88;;;23.00;38.90;;;;;;2290390;55;20100;-75
2022/06/18 01:08:06;;;;;;;1.70;0.90;;;23.00;38.70;;;;;;2293891;55;21029;-73
2022/06/18 01:10:34;;;;;;;3.12;1.02;;;22.90;39.00;;;;;;2294118;54;21707;-71
2022/06/18 01:13:02;;;;;;;2.15;0.95;;;22.80;39.00;;;;;;2290110;55;20937;-75
2022/06/18 01:15:32;;;;;;;2.37;1.00;;;22.80;39.30;;;;;;2291026;55;20988;-70
2022/06/18 01:17:58;;;;;;;1.70;0.75;;;22.70;39.30;;;;;;2290526;55;20993;-75
2022/06/18 01:20:25;;;;;;;3.25;0.90;;;22.70;39.30;;;;;;2291195;55;20992;-71
2022/06/18 01:23:14;;;;;;;2.00;0.98;;;22.70;39.50;;;;;;2290558;55;20995;-72
2022/06/18 01:25:40;;;;;;;2.17;1.00;;;22.70;39.60;;;;;;2290614;55;21837;-74
2022/06/18 01:28:09;;;;;;;2.00;0.85;;;22.60;39.50;;;;;;2293479;55;20941;-72
2022/06/18 01:30:36;;;;;;;2.33;0.90;;;22.60;39.60;;;;;;2472655;54;21036;-76
2022/06/18 01:33:06;;;;;;;2.20;0.90;;;22.50;39.70;;;;;;2291763;55;21039;-73
2022/06/18 01:35:32;;;;;;;1.67;0.90;;;22.50;39.70;;;;;;2289997;55;21008;-73
2022/06/18 01:37:58;;;;;;;2.00;0.90;;;22.50;39.80;;;;;;2290618;55;21492;-71
2022/06/18 01:40:45;;;;;;;2.42;1.10;;;22.40;39.80;;;;;;2447885;54;21016;-74
2022/06/18 01:43:13;;;;;;;2.00;0.90;;;22.40;40.00;;;;;;2290932;55;20937;-74
2022/06/18 01:45:40;;;;;;;2.42;1.10;;;22.40;40.00;;;;;;2290774;55;20925;-72
2022/06/18 01:48:21;;;;;;;2.60;1.00;;;22.40;40.00;;;;;;2290805;55;21013;-73
2022/06/18 01:50:51;;;;;;;2.17;1.00;;;22.40;40.30;;;;;;2296046;55;20977;-72
2022/06/18 01:53:31;;;;;;;2.45;1.00;;;22.30;40.10;;;;;;2525131;54;21811;-73
2022/06/18 01:56:05;;;;;;;2.47;1.10;;;22.30;40.60;;;;;;2294320;55;21325;-72
2022/06/18 01:58:38;;;;;;;3.08;1.20;;;22.30;40.40;;;;;;2290379;55;20944;-71
2022/06/18 02:01:06;;;;;;;2.55;1.00;;;22.20;40.40;;;;;;2337948;54;22147;-72
2022/06/18 02:03:32;;;;;;;2.72;1.05;;;22.20;40.30;;;;;;2293858;55;22084;-72
2022/06/18 02:05:58;;;;;;;1.80;0.80;;;22.10;40.40;;;;;;2358925;54;21013;-73
2022/06/18 02:08:25;;;;;;;1.77;0.90;;;22.10;40.40;;;;;;2518307;54;20981;-73
2022/06/18 02:10:59;;;;;;;2.45;0.88;;;22.10;40.50;;;;;;2290566;55;20968;-75
2022/06/18 02:13:30;;;;;;;2.70;1.08;;;22.10;40.90;;;;;;2525650;54;20940;-71
2022/06/18 02:15:57;;;;;;;2.47;0.90;;;22.00;40.70;;;;;;2503513;54;20949;-73
2022/06/18 02:18:23;;;;;;;1.52;0.70;;;22.00;40.70;;;;;;2290534;55;20960;-71
2022/06/18 02:20:52;;;;;;;1.73;0.90;;;22.00;40.80;;;;;;2294623;55;20924;-72
2022/06/18 02:23:19;;;;;;;2.00;1.00;;;21.90;40.80;;;;;;2289477;55;20936;-73
2022/06/18 02:25:45;;;;;;;2.10;0.82;;;21.90;40.80;;;;;;2289429;55;20941;-72
2022/06/18 02:28:27;;;;;;;1.75;0.80;;;21.90;40.80;;;;;;2289835;55;20944;-73
2022/06/18 02:30:59;;;;;;;2.22;1.00;;;21.90;40.90;;;;;;2524255;54;21016;-71
2022/06/18 02:33:53;;;;;;;3.30;1.37;;;21.80;41.00;;;;;;2320203;54;21020;-71
2022/06/18 02:36:25;;;;;;;2.00;0.88;;;21.80;41.60;;;;;;2297308;55;21666;-75
2022/06/18 02:38:58;;;;;;;1.80;1.00;;;21.80;41.10;;;;;;2293733;55;20956;-72
2022/06/18 02:41:24;;;;;;;1.87;0.95;;;21.70;41.20;;;;;;2290009;55;21922;-71
2022/06/18 02:43:50;;;;;;;2.20;1.08;;;21.70;41.20;;;;;;2290457;55;20969;-72
2022/06/18 02:46:16;;;;;;;3.70;1.20;;;21.70;41.30;;;;;;2294220;55;21701;-74
2022/06/18 02:48:43;;;;;;;2.85;1.55;;;21.60;41.30;;;;;;2293252;55;21816;-73
2022/06/18 02:51:10;;;;;;;4.47;1.65;;;21.60;41.30;;;;;;2294231;55;21049;-72
2022/06/18 02:53:36;;;;;;;3.08;1.58;;;21.60;41.50;;;;;;2290937;55;20928;-75
2022/06/18 02:56:04;;;;;;;3.20;1.58;;;21.60;42.10;;;;;;2290803;55;20968;-75
2022/06/18 02:58:34;;;;;;;2.50;1.15;;;21.50;41.50;;;;;;2291829;55;21929;-73
2022/06/18 03:01:03;;;;;;;2.97;1.23;;;21.50;41.50;;;;;;2290826;55;20984;-74
2022/06/18 03:03:31;;;;;;;2.65;1.30;;;21.50;41.60;;;;;;2290922;55;20940;-71
2022/06/18 03:05:58;;;;;;;2.12;0.85;;;21.50;41.70;;;;;;2290657;55;21001;-72
2022/06/18 03:08:25;;;;;;;2.53;1.05;;;21.40;41.60;;;;;;2525459;54;21824;-72
2022/06/18 03:13:37;;;;;;;3.47;1.10;;;21.40;42.00;;;;;;2294969;55;20972;-74
2022/06/18 03:16:05;;;;;;;2.30;1.10;;;21.40;41.90;;;;;;2293685;55;22003;-71
2022/06/18 03:18:31;;;;;;;2.15;0.93;;;21.30;41.90;;;;;;2292960;55;20957;-75
2022/06/18 03:22:30;;;;;;;2.17;0.93;;;21.30;42.00;;;;;;2293860;55;21097;-70
2022/06/18 03:24:56;;;;;;;1.23;0.60;;;21.30;42.40;;;;;;2291728;55;21011;-72
2022/06/18 03:27:23;;;;;;;1.83;0.85;;;21.30;41.90;;;;;;2292611;55;20993;-70
2022/06/18 03:29:52;;;;;;;2.20;1.10;;;21.20;42.00;;;;;;2525398;54;21770;-71
2022/06/18 03:32:18;;;;;;;2.40;0.95;;;21.20;42.20;;;;;;2525160;54;20972;-75
2022/06/18 03:34:44;;;;;;;1.80;1.00;;;21.20;42.20;;;;;;2294742;55;21025;-71
2022/06/18 03:37:12;;;;;;;2.33;1.00;;;21.10;42.20;;;;;;2294184;55;20953;-72
2022/06/18 03:39:38;;;;;;;2.37;1.05;;;21.10;42.30;;;;;;2296602;55;20969;-71
2022/06/18 03:42:06;;;;;;;1.85;0.82;;;21.10;42.40;;;;;;2337461;54;20965;-71
2022/06/18 03:44:32;;;;;;;1.70;0.85;;;21.10;42.50;;;;;;2465657;54;21011;-71
2022/06/18 03:46:59;;;;;;;2.12;1.00;;;21.10;42.70;;;;;;2290916;55;20960;-69
2022/06/18 03:49:30;;;;;;;1.87;0.90;;;21.10;42.70;;;;;;2411688;54;21414;-71
2022/06/18 03:51:56;;;;;;;3.22;0.90;;;21.00;42.80;;;;;;2291058;55;20999;-72
2022/06/18 03:54:24;;;;;;;2.30;1.10;;;21.00;42.70;;;;;;2293983;55;21012;-71
2022/06/18 03:56:51;;;;;;;2.55;1.10;;;21.00;42.80;;;;;;2523485;54;20963;-72
2022/06/18 03:59:17;;;;;;;1.98;1.00;;;21.00;42.80;;;;;;2290421;55;20996;-71
2022/06/18 04:01:44;;;;;;;4.07;1.42;;;21.00;42.90;;;;;;2297191;55;21029;-71
2022/06/18 04:04:11;;;;;;;2.55;1.10;;;21.00;42.90;;;;;;2289810;55;20947;-75
2022/06/18 04:06:40;;;;;;;2.40;1.10;;;21.00;43.00;;;;;;2290622;55;20932;-71
2022/06/18 04:09:07;;;;;;;2.78;1.20;;;20.90;43.00;;;;;;2290057;55;21016;-71
2022/06/18 04:11:33;;;;;;;2.87;1.10;;;21.00;43.10;;;;;;2290412;55;21015;-71
2022/06/18 04:13:59;;;;;;;2.25;1.02;;;20.90;43.20;;;;;;2289518;55;21499;-71
2022/06/18 04:16:26;;;;;;;2.28;1.02;;;20.90;43.30;;;;;;2382140;54;21004;-71
2022/06/18 04:18:52;;;;;;;2.75;1.40;;;20.90;43.90;;;;;;2289905;55;21000;-72
2022/06/18 04:21:18;;;;;;;3.12;1.37;;;20.90;43.50;;;;;;2290577;55;20936;-72
2022/06/18 04:23:45;;;;;;;4.35;1.40;;;21.00;43.60;;;;;;2290794;55;21452;-72
2022/06/18 04:26:12;;;;;;;2.17;1.00;;;20.90;43.60;;;;;;2290936;55;21485;-74
2022/06/18 04:28:41;;;;;;;1.98;1.00;;;20.90;43.60;;;;;;2293860;55;20972;-76
2022/06/18 04:31:07;;;;;;;2.05;1.05;;;20.90;43.60;;;;;;2290383;55;21035;-77
2022/06/18 04:33:34;;;;;;;2.30;1.08;;;20.90;43.70;;;;;;2290554;55;20952;-72
2022/06/18 04:36:00;;;;;;;2.20;1.00;;;20.90;43.80;;;;;;2524944;54;21012;-74
2022/06/18 04:38:27;;;;;;;2.10;1.05;;;20.90;44.00;;;;;;2290980;55;21009;-72
2022/06/18 04:40:53;;;;;;;2.80;1.10;;;21.00;44.10;;;;;;2290525;55;20949;-74
2022/06/18 04:43:22;;;;;;;1.75;0.90;;;20.90;44.10;;;;;;2290911;55;20968;-75
2022/06/18 04:45:52;;;;;;;2.20;1.17;;;21.00;44.20;;;;;;2389999;54;21009;-74
2022/06/18 04:48:18;;;;;;;2.35;1.20;;;21.00;45.00;;;;;;2290784;55;21006;-73
2022/06/18 04:50:46;;;;;;;2.60;1.30;;;21.00;44.30;;;;;;2293774;55;20956;-71
2022/06/18 04:53:12;;;;;;;2.20;1.00;;;21.00;44.40;;;;;;2293840;55;20973;-72
2022/06/18 04:55:39;;;;;;;1.67;0.95;;;21.10;44.50;;;;;;2290619;55;21043;-71
2022/06/18 04:58:05;;;;;;;2.30;0.93;;;21.10;44.60;;;;;;2359748;54;20963;-71
2022/06/18 05:00:32;;;;;;;3.17;1.23;;;21.10;44.80;;;;;;2474553;54;21040;-72
2022/06/18 05:02:59;;;;;;;5.43;1.20;;;21.20;45.00;;;;;;2291632;55;20956;-72
2022/06/18 05:05:26;;;;;;;2.00;0.98;;;21.20;45.10;;;;;;2290678;55;21060;-73
2022/06/18 05:07:53;;;;;;;1.92;0.90;;;21.30;45.20;;;;;;2290590;55;21008;-72
2022/06/18 05:10:21;;;;;;;2.45;1.10;;;21.30;45.20;;;;;;2290532;55;21019;-72
2022/06/18 05:12:50;;;;;;;2.20;1.10;;;21.30;45.40;;;;;;2293926;55;20937;-71
2022/06/18 05:15:19;;;;;;;2.12;1.00;;;21.40;45.50;;;;;;2289917;55;21013;-71
2022/06/18 05:17:46;;;;;;;2.58;1.00;;;21.40;45.60;;;;;;2290670;55;21028;-74
2022/06/18 05:20:17;;;;;;;2.35;1.15;;;21.40;45.70;;;;;;2290541;55;20960;-71
2022/06/18 05:22:44;;;;;;;3.17;0.80;;;21.50;45.80;;;;;;2310963;54;21004;-71
2022/06/18 05:25:11;;;;;;;2.12;1.02;;;21.50;45.80;;;;;;2289819;55;20937;-72
2022/06/18 05:27:37;;;;;;;2.20;1.05;;;21.60;45.90;;;;;;2290658;55;21008;-72
2022/06/18 05:30:06;;;;;;;1.73;0.80;;;21.70;46.00;;;;;;2290269;55;21020;-72
2022/06/18 05:32:32;;;;;;;2.42;0.82;;;21.70;46.00;;;;;;2290524;55;21746;-72
2022/06/18 05:34:58;;;;;;;1.73;0.75;;;21.80;46.00;;;;;;2291193;55;20964;-72
2022/06/18 05:37:25;;;;;;;1.52;0.70;;;21.90;46.10;;;;;;2294543;55;21041;-72
2022/06/18 05:39:51;;;;;;;2.30;1.00;;;21.90;46.20;;;;;;2289663;55;20984;-71
2022/06/18 05:42:17;;;;;;;2.40;1.10;;;22.00;46.40;;;;;;2404817;54;21073;-77
2022/06/18 05:44:45;;;;;;;1.80;0.95;;;22.10;46.50;;;;;;2295113;55;20993;-73
2022/06/18 05:47:16;;;;;;;2.10;1.00;;;22.20;46.70;;;;;;2290521;55;21023;-72
2022/06/18 05:49:43;;;;;;;1.90;1.00;;;22.30;47.10;;;;;;2289022;55;20948;-75
2022/06/18 05:52:09;;;;;;;2.10;0.93;;;22.30;47.00;;;;;;2290341;55;20928;-72
2022/06/18 05:54:35;;;;;;;2.30;0.90;;;22.40;47.20;;;;;;2436974;54;21021;-72
2022/06/18 05:57:02;;;;;;;2.15;1.00;;;22.50;47.30;;;;;;2293063;55;20990;-72
2022/06/18 05:59:28;;;;;;;2.65;1.00;;;22.60;47.30;;;;;;2293947;55;20926;-73
2022/06/18 06:01:56;;;;;;;2.20;0.90;;;22.80;47.40;;;;;;2289442;55;21020;-72
2022/06/18 06:04:24;;;;;;;1.65;0.68;;;22.90;47.40;;;;;;2290140;55;20996;-73
2022/06/18 06:06:51;;;;;;;1.92;0.80;;;23.00;47.40;;;;;;2293487;55;20978;-73
2022/06/18 06:11:28;;;;;;;2.42;0.93;;;23.10;47.40;;;;;;2288731;55;21572;-71
2022/06/18 06:13:56;;;;;;;1.50;0.85;;;23.20;47.40;;;;;;2327046;54;20964;-72
2022/06/18 06:16:23;;;;;;;1.50;0.80;;;23.50;47.30;;;;;;2290552;55;20937;-73
2022/06/18 06:18:49;;;;;;;2.83;0.90;;;23.50;47.30;;;;;;2293428;55;21058;-74
2022/06/18 06:21:16;;;;;;;2.08;0.90;;;23.70;47.30;;;;;;2290303;55;21409;-73
2022/06/18 06:23:42;;;;;;;1.92;0.88;;;23.80;47.30;;;;;;2290581;55;21741;-73
2022/06/18 06:26:54;;;;;;;2.30;1.20;;;23.90;47.40;;;;;;2297396;55;21104;-74
2022/06/18 06:29:20;;;;;;;2.15;1.05;;;24.10;48.30;;;;;;2293960;55;21083;-76
2022/06/18 06:31:46;;;;;;;2.28;1.10;;;24.20;47.30;;;;;;2289541;55;20976;-73
2022/06/18 06:34:13;;;;;;;3.60;1.08;;;24.30;47.30;;;;;;2294043;55;20969;-74
2022/06/18 06:36:39;;;;;;;2.30;1.20;;;24.40;47.40;;;;;;2290631;55;20968;-71
2022/06/18 06:39:05;;;;;;;4.12;1.27;;;24.50;47.30;;;;;;2292346;55;21008;-74
2022/06/18 06:41:34;;;;;;;2.42;1.23;;;24.60;47.30;;;;;;2290341;55;21035;-74
2022/06/18 06:44:01;;;;;;;2.97;1.00;;;24.80;47.40;;;;;;2290648;55;21107;-74
2022/06/18 06:46:29;;;;;;;2.97;1.33;;;24.90;47.20;;;;;;2318335;54;20922;-73
2022/06/18 06:48:55;;;;;;;3.03;1.00;;;25.00;47.20;;;;;;2273703;55;20973;-73
2022/06/18 06:51:23;;;;;;;2.55;1.15;;;25.10;47.10;;;;;;2290625;55;20940;-73
2022/06/18 06:53:51;;;;;;;2.28;1.10;;;25.20;47.00;;;;;;2290575;55;21441;-74
2022/06/18 06:59:06;;;;;;;2.30;1.00;;;25.50;46.80;;;;;;2290223;55;20960;-73
2022/06/18 07:01:34;;;;;;;2.62;1.20;;;25.60;46.80;;;;;;2290934;55;20968;-74
2022/06/18 07:04:01;;;;;;;2.33;1.10;;;25.70;47.40;;;;;;2460446;54;20984;-76
2022/06/18 07:06:31;;;;;;;2.58;1.23;;;25.80;46.70;;;;;;2391363;54;21132;-74
2022/06/18 07:08:57;;;;;;;2.30;1.10;;;25.90;46.70;;;;;;2440561;54;20965;-73
2022/06/18 07:11:24;;;;;;;3.97;1.30;;;26.00;46.80;;;;;;2293026;54;21539;-76
2022/06/18 07:13:50;;;;;;;2.47;1.40;;;26.10;46.90;;;;;;2290518;55;21008;-75
2022/06/18 07:16:16;;;;;;;2.53;1.23;;;26.20;46.70;;;;;;2293752;55;21392;-73
2022/06/18 07:18:52;;;;;;;2.70;1.23;;;26.30;46.70;;;;;;2479661;54;20960;-74
2022/06/18 07:21:19;;;;;;;2.35;1.20;;;26.30;46.40;;;;;;2272626;55;21000;-73
2022/06/18 07:23:45;;;;;;;2.30;1.25;;;26.50;46.60;;;;;;2272553;55;21064;-77
2022/06/18 07:26:15;;;;;;;2.25;1.12;;;26.50;46.50;;;;;;2441719;54;20992;-74
2022/06/18 07:28:43;;;;;;;2.42;1.10;;;26.60;46.40;;;;;;2340267;54;20956;-74
2022/06/18 07:31:27;;;;;;;3.55;1.48;;;26.70;46.50;;;;;;2289167;55;20967;-75
2022/06/18 07:33:56;;;;;;;2.30;1.10;;;26.80;46.70;;;;;;2290459;55;20972;-77
2022/06/18 07:36:22;;;;;;;2.67;1.37;;;26.90;46.30;;;;;;2293055;55;20957;-74
2022/06/18 07:38:48;;;;;;;3.00;1.35;;;27.00;46.10;;;;;;2292847;54;21072;-73
2022/06/18 07:41:16;;;;;;;2.60;1.30;;;27.10;45.80;;;;;;2294035;55;21005;-75
2022/06/18 07:43:46;;;;;;;2.83;1.08;;;27.20;45.90;;;;;;2288633;55;21484;-74
2022/06/18 07:46:12;;;;;;;2.85;1.15;;;27.30;45.60;;;;;;2290701;55;21034;-75
2022/06/18 07:48:39;;;;;;;2.28;1.20;;;27.40;45.40;;;;;;2525463;54;21084;-73
2022/06/18 07:51:06;;;;;;;2.35;1.00;;;27.50;45.60;;;;;;2289748;55;21790;-75
2022/06/18 07:53:35;;;;;;;2.37;1.23;;;27.60;45.60;;;;;;2315474;54;20932;-76
2022/06/18 07:56:05;;;;;;;3.20;1.27;;;27.70;45.40;;;;;;2292956;55;20942;-75
2022/06/18 07:58:33;;;;;;;2.65;1.33;;;27.80;45.40;;;;;;2290517;55;20924;-76
2022/06/18 08:01:00;;;;;;;4.85;1.58;;;27.90;45.30;;;;;;2290479;55;20999;-74
2022/06/18 08:03:26;;;;;;;2.67;1.37;;;28.00;45.10;;;;;;2290246;55;20948;-74
2022/06/18 08:05:53;;;;;;;2.75;1.30;;;28.00;45.20;;;;;;2289330;55;20968;-73
2022/06/18 08:08:19;;;;;;;3.45;1.30;;;28.10;45.10;;;;;;2290549;55;21840;-75
2022/06/18 08:11:04;;;;;;;2.83;1.02;;;28.20;45.10;;;;;;2290324;55;20956;-73
2022/06/18 08:13:31;;;;;;;2.95;1.37;;;28.30;45.10;;;;;;2305432;54;20942;-75
2022/06/18 08:15:57;;;;;;;2.72;1.17;;;28.40;44.80;;;;;;2455507;54;20988;-75
2022/06/18 08:18:25;;;;;;;3.45;1.80;;;28.50;45.20;;;;;;2292601;55;21037;-76
2022/06/18 08:20:54;;;;;;;3.22;1.70;;;28.60;44.60;;;;;;2294840;55;20969;-75
2022/06/18 08:23:20;;;;;;;2.80;1.55;;;28.70;44.70;;;;;;2293594;55;21036;-74
2022/06/18 08:25:48;;;;;;;3.55;1.67;;;28.80;44.60;;;;;;2403039;54;21051;-73
2022/06/18 08:28:15;;;;;;;2.97;1.30;;;28.90;44.40;;;;;;2293761;55;21054;-76
2022/06/18 08:30:42;;;;;;;2.50;1.20;;;29.00;44.30;;;;;;2523176;54;20901;-73
2022/06/18 08:33:09;;;;;;;3.22;1.52;;;29.10;44.00;;;;;;2290887;55;21046;-72
2022/06/18 08:35:37;;;;;;;2.50;1.30;;;29.10;43.90;;;;;;2291177;55;21036;-73
2022/06/18 08:38:05;;;;;;;7.87;1.42;;;29.20;43.70;;;;;;2293249;55;21516;-73
2022/06/18 08:42:11;;;;;;;4.82;1.65;;;29.40;43.70;;;;;;2329319;54;21330;-74
2022/06/18 08:47:57;;;;;;;2.53;1.12;;;29.40;43.30;;;;;;2361375;54;20972;-74
2022/06/18 08:53:11;;;;;;;3.25;1.12;;;29.70;43.10;;;;;;2290532;55;20928;-74
2022/06/18 08:55:58;;;;;;;2.58;1.12;;;29.90;42.90;;;;;;2412267;54;21751;-73
2022/06/18 08:59:16;;;;;;;2.53;1.37;;;30.00;42.60;;;;;;2329986;54;21003;-74
2022/06/18 09:01:45;;;;;;;3.00;1.20;;;30.10;42.30;;;;;;2296658;55;20957;-74
2022/06/18 09:08:40;;;;;;;1.98;1.17;;;30.20;42.60;;;;;;2292140;55;20936;-75
2022/06/18 09:11:36;;;;;;;2.20;1.02;;;30.30;42.40;;;;;;2291100;55;21034;-74
2022/06/18 09:14:50;;;;;;;2.08;1.02;;;30.50;42.10;;;;;;2292837;55;20914;-74
2022/06/18 09:17:43;;;;;;;2.15;1.30;;;30.60;41.90;;;;;;2290001;55;20939;-74
2022/06/18 09:20:11;;;;;;;;;;;30.70;42.50;;;;;;2294830;55;21759;-74
2022/06/18 09:22:50;;;;;;;2.17;1.25;;;30.80;42.30;;;;;;2498370;54;20141;-76
2022/06/18 09:25:18;;;;;;;2.30;1.20;;;30.80;41.80;;;;;;2293929;55;20934;-74
2022/06/18 09:28:01;;;;;;;3.53;1.20;;;30.90;41.80;;;;;;2293562;55;21007;-74
2022/06/18 09:30:44;;;;;;;3.45;1.25;;;31.00;41.60;;;;;;2293982;55;21021;-74
2022/06/18 09:33:17;;;;;;;2.45;1.40;;;31.10;41.30;;;;;;2294607;55;21065;-76
2022/06/18 09:35:52;;;;;;;2.65;1.50;;;31.10;41.20;;;;;;2298038;55;20973;-76
2022/06/18 09:39:48;;;;;;;3.05;1.45;;;31.20;41.10;;;;;;2275389;55;20984;-74
2022/06/18 09:42:25;;;;;;;3.50;1.10;;;31.30;40.80;;;;;;2302917;54;20973;-73
2022/06/18 09:45:04;;;;;;;2.35;1.25;;;31.40;40.90;;;;;;2295425;55;21036;-73
2022/06/18 09:47:47;;;;;;;3.45;1.45;;;31.50;40.80;;;;;;2523601;54;20981;-75
2022/06/18 09:50:54;;;;;;;2.03;1.12;;;31.60;40.50;;;;;;2463188;54;20976;-71
2022/06/18 09:53:37;;;;;;;2.30;1.10;;;31.70;40.30;;;;;;2524172;54;21082;-74
2022/06/18 09:56:09;;;;;;;2.10;1.05;;;31.80;40.00;;;;;;2296838;55;21455;-75
2022/06/18 09:58:41;;;;;;;2.33;1.15;;;31.90;40.00;;;;;;2367510;54;20964;-73
2022/06/18 10:01:08;;;;;;;2.25;1.10;;;31.90;39.70;;;;;;2290072;55;20940;-74
2022/06/18 10:11:07;;;;;;;;;;;32.20;39.30;;;;;;2274835;55;20980;-74
2022/06/18 10:13:42;;;;;;;2.67;1.08;;;32.30;39.20;;;;;;2290074;55;20140;-73
2022/06/18 10:16:32;;;;;;;2.30;1.20;;;32.40;39.10;;;;;;2292885;55;20929;-73
2022/06/18 10:19:15;;;;;;;3.75;1.10;;;32.50;39.00;;;;;;2292498;55;21028;-74
2022/06/18 10:25:43;;;;;;;2.15;1.00;;;32.60;38.60;;;;;;2290384;55;21769;-75
2022/06/18 10:29:05;;;;;;;2.33;1.12;;;32.70;38.10;;;;;;2526038;54;21024;-74
2022/06/18 10:32:08;;;;;;;2.03;0.97;;;32.80;37.70;;;;;;2324234;54;21117;-75
2022/06/18 10:41:26;;;;;;;2.20;1.10;;;33.00;37.60;;;;;;2425919;54;20976;-73
2022/06/18 10:47:29;;;;;;;1.90;1.02;;;33.20;38.00;;;;;;2290982;55;21032;-74
2022/06/18 10:50:01;;;;;;;1.70;0.88;;;33.40;37.90;;;;;;2290898;55;21708;-76
2022/06/18 10:52:28;;;;;;;2.00;0.90;;;33.50;37.50;;;;;;2290662;55;21032;-73
2022/06/18 10:55:14;;;;;;;1.80;1.00;;;33.50;37.40;;;;;;2290110;55;21800;-74
2022/06/18 10:57:44;;;;;;;2.22;1.12;;;33.60;36.90;;;;;;2301546;54;21856;-73
2022/06/18 11:00:19;;;;;;;2.25;1.15;;;33.70;37.30;;;;;;2290658;55;21492;-74
2022/06/18 11:02:45;;;;;;;1.80;0.90;;;33.70;37.10;;;;;;2333880;54;20964;-73
2022/06/18 11:05:31;;;;;;;1.92;1.00;;;33.80;37.30;;;;;;2290666;55;21000;-73
2022/06/18 11:08:00;;;;;;;2.28;1.10;;;33.90;36.50;;;;;;2304954;54;21089;-72
2022/06/18 11:10:45;;;;;;;2.47;1.30;;;34.00;36.70;;;;;;2289807;55;20944;-73
2022/06/18 11:13:25;;;;;;;2.05;1.00;;;34.10;36.00;;;;;;2290642;55;20952;-74
2022/06/18 11:17:02;;;;;;;2.28;1.23;;;34.20;35.80;;;;;;2290506;55;20948;-76
2022/06/18 11:19:34;;;;;;;2.35;1.27;;;34.30;35.60;;;;;;2294065;55;21685;-74
2022/06/18 11:22:22;;;;;;;2.62;1.12;;;34.40;35.30;;;;;;2405283;54;20967;-73
2022/06/18 11:24:56;;;;;;;2.72;1.20;;;34.50;34.90;;;;;;2272441;55;21375;-76
2022/06/18 11:27:23;;;;;;;2.15;1.10;;;34.50;34.80;;;;;;2294811;55;21050;-73
2022/06/18 11:29:56;;;;;;;2.20;1.10;;;34.60;35.10;;;;;;2365562;54;20955;-75
2022/06/18 11:32:24;;;;;;;1.98;0.85;;;34.60;34.80;;;;;;2290606;55;20973;-74
2022/06/18 11:34:55;;;;;;;3.08;1.10;;;34.70;34.80;;;;;;2461135;54;20994;-73
2022/06/18 11:37:23;;;;;;;2.60;1.15;;;34.80;34.70;;;;;;2272489;55;20968;-74
2022/06/18 11:40:25;;;;;;;2.10;1.05;;;34.90;34.50;;;;;;2272282;55;20959;-75
2022/06/18 11:45:58;;;;;;;2.20;0.93;;;35.00;34.70;;;;;;2272224;55;21016;-74
2022/06/18 11:50:19;;;;;;;1.58;0.80;;;35.20;34.40;;;;;;2290811;55;20996;-73
2022/06/18 11:52:57;;;;;;;1.70;0.82;;;35.30;34.30;;;;;;2296496;55;20969;-73
2022/06/18 11:55:37;;;;;;;1.80;0.90;;;35.40;33.70;;;;;;2387897;54;21077;-73
2022/06/18 11:58:18;;;;;;;2.15;1.00;;;35.40;33.20;;;;;;2289967;55;20941;-73
2022/06/18 12:01:22;;;;;;;1.92;1.05;;;35.60;33.10;;;;;;2290641;55;21978;-74
2022/06/18 12:04:25;;;;;;;2.05;1.00;;;35.60;33.10;;;;;;2290130;54;20964;-73
2022/06/18 12:07:13;;;;;;;2.20;0.90;;;35.70;33.10;;;;;;2290379;55;21866;-73
2022/06/18 12:09:41;;;;;;;2.67;1.17;;;35.80;32.70;;;;;;2290547;55;21016;-73
2022/06/18 12:13:42;;;;;;;2.50;1.12;;;35.80;32.80;;;;;;2290595;55;20996;-75
2022/06/18 12:16:24;;;;;;;3.90;0.98;;;35.90;32.80;;;;;;2297251;55;21025;-76
2022/06/18 12:19:12;;;;;;;3.03;1.25;;;36.00;32.30;;;;;;2341047;54;20976;-74
2022/06/18 12:21:53;;;;;;;2.65;1.10;;;36.10;32.20;;;;;;2290740;55;21020;-75
2022/06/18 12:24:38;;;;;;;3.15;1.30;;;36.10;31.80;;;;;;2290599;55;21343;-74
2022/06/18 12:30:16;;;;;;;4.28;1.10;;;36.20;31.90;;;;;;2295311;55;21032;-74
2022/06/18 12:33:38;;;;;;;2.10;0.88;;;36.30;32.20;;;;;;2293988;55;21057;-74
2022/06/18 12:42:01;;;;;;;4.78;0.93;;;36.40;31.50;;;;;;2348420;54;21071;-76
2022/06/18 12:45:50;;;;;;;1.92;0.90;;;36.60;32.00;;;;;;2316758;54;20948;-73
2022/06/18 12:55:10;;;;;;;2.20;0.93;;;36.70;32.00;;;;;;2291410;55;21548;-76
2022/06/18 13:01:12;;;;;;;1.80;0.90;;;36.90;31.90;;;;;;2290285;55;20971;-76
2022/06/18 13:06:45;;;;;;;2.22;1.10;;;37.00;31.60;;;;;;2290743;55;20996;-75
2022/06/18 13:10:27;;;;;;;2.87;1.20;;;37.10;31.50;;;;;;2291015;55;21437;-76
2022/06/18 13:16:44;;;;;;;1.87;1.00;;;37.20;31.20;;;;;;2290675;55;20961;-75
2022/06/18 13:19:19;;;;;;;2.33;0.93;;;37.20;30.90;;;;;;2263471;55;1722241;-76
2022/06/18 13:21:45;;;;;;;2.05;1.10;;;37.30;30.70;;;;;;2290663;55;21656;-74
2022/06/18 13:31:25;;;;;;;2.90;1.10;;;37.50;30.40;;;;;;2290796;55;21092;-73
2022/06/18 13:37:10;;;;;;;2.90;1.20;;;37.50;30.10;;;;;;2358179;54;21422;-78
2022/06/18 13:39:54;;;;;;;1.70;0.80;;;37.70;30.30;;;;;;2294574;55;20976;-76
2022/06/18 13:49:11;;;;;;;2.62;1.10;;;37.70;29.90;;;;;;2289953;55;21373;-76
2022/06/18 13:51:39;;;;;;;2.60;0.95;;;38.00;30.40;;;;;;2412901;54;21033;-73
2022/06/18 13:54:23;;;;;;;2.30;1.00;;;38.00;30.00;;;;;;2293097;55;20969;-77
2022/06/18 13:57:00;;;;;;;3.10;1.42;;;38.10;29.80;;;;;;2290535;55;20996;-74
2022/06/18 13:59:26;;;;;;;2.65;1.30;;;38.10;29.70;;;;;;2293938;55;21025;-73
2022/06/18 14:01:58;;;;;;;4.25;1.45;;;38.20;30.00;;;;;;2290676;55;21016;-74
2022/06/18 14:04:32;;;;;;;2.83;1.35;;;38.30;29.70;;;;;;2271737;55;21416;-75
2022/06/18 14:07:00;;;;;;;2.40;1.12;;;38.30;29.70;;;;;;2329240;54;20980;-76
2022/06/18 14:09:30;;;;;;;2.75;1.30;;;38.40;29.60;;;;;;2293819;55;21001;-76
2022/06/18 14:12:02;;;;;;;3.47;1.20;;;38.50;29.40;;;;;;2498991;54;21032;-75
2022/06/18 14:14:29;;;;;;;;;;;38.40;29.50;;;;;;2344262;54;21979;-74
2022/06/18 14:17:07;;;;;;;1.83;0.93;;;38.50;29.70;;;;;;2288367;55;20125;-77
2022/06/18 14:19:44;;;;;;;4.15;1.37;;;38.60;29.40;;;;;;2276516;55;20945;-79
2022/06/18 14:22:22;;;;;;;3.72;1.20;;;38.60;29.40;;;;;;2290771;55;21722;-78
2022/06/18 14:24:54;;;;;;;2.50;1.20;;;38.70;29.50;;;;;;2290615;55;20991;-75
2022/06/18 14:27:31;;;;;;;3.58;1.10;;;38.70;29.30;;;;;;2290240;55;20976;-75
2022/06/18 14:29:59;;;;;;;3.00;1.00;;;38.80;29.60;;;;;;2525485;54;20949;-75
2022/06/18 14:32:58;;;;;;;3.45;1.20;;;38.80;29.40;;;;;;2291362;55;20935;-77
2022/06/18 14:36:56;;;;;;;2.60;1.20;;;38.90;29.30;;;;;;2290566;55;21115;-75
2022/06/18 14:39:30;;;;;;;2.40;1.10;;;39.00;29.30;;;;;;2505089;54;21409;-75
2022/06/18 14:42:25;;;;;;;2.55;1.12;;;39.10;29.00;;;;;;2448110;54;21461;-75
2022/06/18 14:49:20;;;;;;;2.53;1.12;;;39.10;28.70;;;;;;2289715;55;21029;-75
2022/06/18 14:52:07;;;;;;;3.62;1.17;;;39.20;28.90;;;;;;2290600;55;20960;-80
2022/06/18 14:57:56;;;;;;;3.08;1.10;;;39.20;28.50;;;;;;2525857;54;21390;-74
2022/06/18 15:00:41;;;;;;;3.20;1.30;;;39.20;28.80;;;;;;2290332;55;21013;-76
2022/06/18 15:03:47;;;;;;;2.20;1.10;;;39.20;28.50;;;;;;2291081;55;21449;-77
2022/06/18 15:06:14;;;;;;;2.83;1.08;;;39.20;28.90;;;;;;2269867;55;21062;-75